Time;durP1;ratioP1;P1;durP2;ratioP2;P2;SDS_P1;SDS_P2;PMS_P1;PMS_P2;Temp;Humidity;BMP_temperature;BMP_pressure;BME280_temperature;BME280_humidity;BME280_pressure;Samples;Min_cycle;Max_cycle;Signal;HPM_P1;HPM_P2
2022/12/20 00:01:10;;;;;;;3.90;2.42;;;;;;;8.90;90.53;101321.78;5074211;28;20044;-84
2022/12/20 00:03:36;;;;;;;4.50;2.70;;;;;;;8.91;91.13;101331.28;5074008;28;20028;-83
2022/12/20 00:06:01;;;;;;;3.25;2.28;;;;;;;8.93;90.38;101319.22;5074596;28;20024;-84
2022/12/20 00:08:27;;;;;;;6.13;2.60;;;;;;;8.94;90.87;101327.00;5074367;28;20024;-84
2022/12/20 00:10:52;;;;;;;4.87;2.60;;;;;;;8.99;90.58;101326.13;5073320;28;20031;-84
2022/12/20 00:13:17;;;;;;;3.53;2.40;;;;;;;8.96;90.53;101329.56;5074409;28;20033;-84
2022/12/20 00:15:43;;;;;;;2.83;2.30;;;;;;;8.98;90.32;101319.22;5074600;28;20116;-83
2022/12/20 00:18:09;;;;;;;4.23;2.43;;;;;;;9.05;90.19;101319.19;5073784;28;20024;-84
2022/12/20 00:20:34;;;;;;;4.37;2.43;;;;;;;9.07;90.31;101311.41;5081861;28;20074;-84
2022/12/20 00:22:59;;;;;;;3.40;2.43;;;;;;;9.07;90.50;101303.66;5074903;28;20082;-84
2022/12/20 00:25:25;;;;;;;3.53;2.50;;;;;;;9.13;89.94;101301.06;5073873;28;20021;-83
2022/12/20 00:27:50;;;;;;;3.07;2.50;;;;;;;9.12;89.66;101310.56;5073852;28;20044;-83
2022/12/20 00:30:16;;;;;;;3.87;2.50;;;;;;;9.14;89.62;101310.56;5073285;28;20031;-83
2022/12/20 00:32:43;;;;;;;5.20;2.60;;;;;;;9.20;89.62;101296.75;5074459;28;20052;-83
2022/12/20 00:35:08;;;;;;;3.45;2.40;;;;;;;9.16;90.04;101295.91;5073436;28;20492;-83
2022/12/20 00:37:34;;;;;;;3.27;2.40;;;;;;;9.14;89.10;101287.25;5073252;28;20036;-83
2022/12/20 00:39:59;;;;;;;3.50;2.43;;;;;;;9.21;89.68;101291.56;5073594;28;20028;-83
2022/12/20 00:42:24;;;;;;;3.73;2.37;;;;;;;9.19;89.90;101290.69;5072588;28;20033;-84
2022/12/20 00:44:50;;;;;;;2.93;2.20;;;;;;;9.18;89.61;101278.59;5072859;28;20047;-84
2022/12/20 00:47:15;;;;;;;3.07;2.33;;;;;;;9.22;89.66;101269.97;5073120;28;20036;-83
2022/12/20 00:49:41;;;;;;;3.40;2.40;;;;;;;9.23;89.63;101270.84;5073482;28;20028;-83
2022/12/20 00:52:06;;;;;;;4.23;2.30;;;;;;;9.23;89.50;101266.50;5072872;28;20078;-83
2022/12/20 00:54:32;;;;;;;2.93;2.30;;;;;;;9.25;88.94;101269.09;5073296;28;20061;-83
2022/12/20 00:56:57;;;;;;;3.60;2.70;;;;;;;9.27;88.91;101273.41;5073642;28;20035;-83
2022/12/20 00:59:22;;;;;;;4.07;2.50;;;;;;;9.32;89.16;101288.06;5072298;28;20078;-83
2022/12/20 01:01:49;;;;;;;3.77;2.30;;;;;;;9.32;89.18;101282.88;5073248;28;20106;-83
2022/12/20 01:04:14;;;;;;;4.20;2.50;;;;;;;9.35;88.42;101275.97;5073175;28;20445;-83
2022/12/20 01:06:39;;;;;;;3.22;2.40;;;;;;;9.37;89.27;101279.41;5072332;28;20287;-83
2022/12/20 01:09:05;;;;;;;3.73;2.37;;;;;;;9.39;89.97;101280.28;5072616;28;20024;-84
2022/12/20 01:11:36;;;;;;;3.70;2.50;;;;;;;9.39;90.29;101285.47;5073384;28;20491;-84
2022/12/20 01:14:06;;;;;;;4.78;2.67;;;;;;;9.40;90.63;101289.78;5072626;28;20020;-83
2022/12/20 01:16:35;;;;;;;4.75;2.70;;;;;;;9.38;91.61;101298.44;5072832;28;20036;-84
2022/12/20 01:19:01;;;;;;;5.05;2.80;;;;;;;9.36;92.02;101298.41;5073218;28;20025;-84
2022/12/20 01:21:27;;;;;;;5.57;2.80;;;;;;;9.31;92.35;101294.09;5072006;28;20039;-85
2022/12/20 01:23:53;;;;;;;4.50;2.60;;;;;;;9.29;91.96;101291.53;5073158;28;20063;-84
2022/12/20 01:26:21;;;;;;;5.50;2.50;;;;;;;9.25;92.05;101285.50;5071628;28;20047;-83
2022/12/20 01:28:50;;;;;;;5.13;2.70;;;;;;;9.23;93.06;101281.22;5073208;28;20025;-84
2022/12/20 01:31:18;;;;;;;4.78;2.70;;;;;;;9.20;93.38;101287.22;5072852;28;20025;-84
2022/12/20 01:33:44;;;;;;;4.65;2.78;;;;;;;9.16;94.25;101295.91;5072311;28;20021;-84
2022/12/20 01:36:12;;;;;;;3.60;2.30;;;;;;;9.11;93.91;101298.50;5072644;28;20025;-84
2022/12/20 01:38:38;;;;;;;5.45;2.67;;;;;;;9.10;94.52;101295.88;5073348;28;20052;-84
2022/12/20 01:41:04;;;;;;;4.53;2.50;;;;;;;9.03;97.01;101282.09;5071677;28;20492;-85
2022/12/20 01:43:50;;;;;;;7.28;3.33;;;;;;;9.04;95.49;101283.81;5073058;28;20028;-84
2022/12/20 01:46:15;;;;;;;6.15;2.60;;;;;;;8.98;95.86;101272.59;5072827;28;20404;-84
2022/12/20 01:48:45;;;;;;;6.63;2.90;;;;;;;8.91;97.61;101263.97;5072311;28;20032;-85
2022/12/20 01:51:10;;;;;;;5.95;2.72;;;;;;;8.86;97.00;101261.41;5072666;28;20384;-84
2022/12/20 01:53:36;;;;;;;5.63;2.80;;;;;;;8.84;98.84;101276.06;5072837;28;20028;-84
2022/12/20 01:56:05;;;;;;;5.97;2.83;;;;;;;8.82;98.62;101259.72;5072248;28;20021;-84
2022/12/20 01:58:32;;;;;;;6.63;2.90;;;;;;;8.80;98.24;101251.91;5072922;28;20031;-85
2022/12/20 02:00:57;;;;;;;6.82;3.05;;;;;;;8.78;98.41;101250.22;5072738;28;20120;-85
2022/12/20 02:03:24;;;;;;;5.80;2.90;;;;;;;8.79;97.43;101244.19;5071690;28;20048;-84
2022/12/20 02:05:49;;;;;;;6.57;2.97;;;;;;;8.76;99.63;101245.06;5072926;28;20039;-85
2022/12/20 02:08:17;;;;;;;4.33;2.60;;;;;;;8.73;98.85;101247.63;5072636;28;20025;-85
2022/12/20 02:11:10;;;;;;;6.60;2.90;;;;;;;8.77;97.66;101249.38;5072291;28;20036;-85
2022/12/20 02:13:59;;;;;;;6.57;2.78;;;;;;;8.77;98.17;101241.59;5052335;28;20029;-84
2022/12/20 02:16:28;;;;;;;6.85;2.80;;;;;;;8.73;99.99;101229.50;5051772;28;20064;-84
2022/12/20 02:19:22;;;;;;;5.20;2.63;;;;;;;8.71;100.00;101225.22;5071539;28;20029;-85
2022/12/20 02:22:08;;;;;;;5.63;2.67;;;;;;;8.69;100.00;101221.75;5072434;28;20548;-84
2022/12/20 02:24:48;;;;;;;3.63;2.33;;;;;;;8.70;99.53;101219.16;5072073;28;20021;-85
2022/12/20 02:27:25;;;;;;;4.07;2.60;;;;;;;8.62;99.91;101214.00;5072418;28;20032;-85
2022/12/20 02:30:06;;;;;;;3.45;2.30;;;;;;;8.60;100.00;101204.50;5072173;28;20028;-85
2022/12/20 02:32:58;;;;;;;2.40;2.20;;;;;;;8.58;100.00;101208.81;5052540;28;20029;-85
2022/12/20 02:35:28;;;;;;;3.67;2.60;;;;;;;8.55;100.00;101206.25;5052275;28;20470;-85
2022/12/20 02:38:00;;;;;;;5.15;2.50;;;;;;;8.56;100.00;101205.38;5051477;28;20025;-85
2022/12/20 02:40:39;;;;;;;3.55;2.30;;;;;;;8.53;100.00;101192.47;5051973;28;20021;-85
2022/12/20 02:45:14;;;;;;;2.92;2.30;;;;;;;8.60;99.67;101194.16;5070307;28;20098;-85
2022/12/20 02:45:57;;;;;;;3.10;2.40;;;;;;;8.58;99.67;101191.59;5071738;28;20493;-85
2022/12/20 02:48:26;;;;;;;3.55;2.80;;;;;;;8.55;100.00;101190.75;5072388;28;20033;-85
2022/12/20 02:50:55;;;;;;;3.83;2.55;;;;;;;8.63;99.95;101196.75;5071130;28;20643;-86
2022/12/20 02:53:21;;;;;;;5.57;2.70;;;;;;;8.59;100.00;101189.84;5051856;28;20032;-85
2022/12/20 02:56:06;;;;;;;3.05;2.40;;;;;;;8.60;100.00;101184.69;5055101;28;20029;-84
2022/12/20 02:58:37;;;;;;;4.47;2.65;;;;;;;8.59;100.00;101182.97;5051529;28;20033;-85
2022/12/20 03:01:10;;;;;;;3.67;2.50;;;;;;;8.60;100.00;101181.22;5052022;28;20041;-85
2022/12/20 03:03:36;;;;;;;3.75;2.40;;;;;;;8.61;99.76;101183.81;5052000;28;20029;-85
2022/12/20 03:06:01;;;;;;;4.45;2.40;;;;;;;8.67;100.00;101182.94;5052915;28;20033;-85
2022/12/20 03:08:27;;;;;;;4.77;2.97;;;;;;;8.68;99.82;101181.22;5055650;28;20492;-85
2022/12/20 03:10:53;;;;;;;4.33;2.50;;;;;;;8.68;100.00;101183.81;5055932;28;20104;-85
2022/12/20 03:13:19;;;;;;;3.58;2.50;;;;;;;8.66;100.00;101181.25;5074693;28;20052;-85
2022/12/20 03:15:45;;;;;;;3.00;2.20;;;;;;;8.66;100.00;101191.59;5075586;28;20037;-84
2022/12/20 03:18:11;;;;;;;3.97;2.60;;;;;;;8.71;99.84;101189.84;5075147;28;20024;-85
2022/12/20 03:20:36;;;;;;;2.95;2.30;;;;;;;8.77;99.37;101188.97;5075125;28;20029;-85
2022/12/20 03:23:01;;;;;;;3.10;2.40;;;;;;;8.78;99.61;101188.09;5075425;28;20389;-85
2022/12/20 03:25:27;;;;;;;3.17;2.40;;;;;;;8.83;99.45;101172.56;5074675;28;20021;-84
2022/12/20 03:27:52;;;;;;;4.10;2.60;;;;;;;8.92;99.18;101176.00;5074561;28;20032;-85
2022/12/20 03:30:18;;;;;;;4.43;2.53;;;;;;;8.93;98.87;101169.94;5075118;28;20039;-85
2022/12/20 03:32:43;;;;;;;5.67;2.60;;;;;;;9.02;98.40;101170.78;5074645;28;20024;-84
2022/12/20 03:35:10;;;;;;;3.70;2.40;;;;;;;9.03;98.79;101170.75;5074230;28;20083;-85
2022/12/20 03:37:35;;;;;;;4.47;2.50;;;;;;;9.07;98.60;101161.25;5075127;28;20052;-85
2022/12/20 03:40:00;;;;;;;4.13;2.37;;;;;;;9.11;98.14;101174.19;5074275;28;20021;-84
2022/12/20 03:42:26;;;;;;;4.63;2.70;;;;;;;9.14;98.46;101178.50;5074966;28;20068;-85
2022/12/20 03:44:51;;;;;;;3.43;2.43;;;;;;;9.16;98.30;101183.66;5074728;28;20066;-85
2022/12/20 03:47:17;;;;;;;3.03;2.40;;;;;;;9.17;97.90;101190.56;5073653;28;20102;-84
2022/12/20 03:49:42;;;;;;;4.73;2.67;;;;;;;9.24;97.56;101194.84;5075151;28;20484;-84
2022/12/20 03:52:11;;;;;;;3.53;2.50;;;;;;;9.24;97.65;101185.38;5074660;28;20032;-85
2022/12/20 03:54:36;;;;;;;3.80;2.33;;;;;;;9.28;97.78;101183.63;5074560;28;20024;-84
2022/12/20 03:57:04;;;;;;;4.90;2.50;;;;;;;9.32;97.85;101190.50;5074300;28;20016;-85
2022/12/20 03:59:29;;;;;;;3.28;2.40;;;;;;;9.39;97.04;101181.84;5074679;28;20020;-84
2022/12/20 04:02:03;;;;;;;2.73;2.40;;;;;;;9.40;97.08;101177.53;5073931;28;20033;-85
2022/12/20 04:04:29;;;;;;;3.42;2.53;;;;;;;9.41;97.04;101174.91;5074637;28;20086;-84
2022/12/20 04:06:54;;;;;;;3.60;2.47;;;;;;;9.44;96.86;101174.03;5073943;28;20443;-85
2022/12/20 04:09:20;;;;;;;3.33;2.60;;;;;;;9.51;96.74;101170.56;5074075;28;20116;-85
2022/12/20 04:11:45;;;;;;;3.90;2.60;;;;;;;9.53;96.58;101183.50;5074184;28;20033;-84
2022/12/20 04:14:22;;;;;;;5.27;2.50;;;;;;;9.52;96.48;101176.59;5074254;28;20385;-84
2022/12/20 04:16:48;;;;;;;4.18;2.45;;;;;;;9.57;96.21;101169.63;5072811;28;20029;-85
2022/12/20 04:19:13;;;;;;;3.43;2.47;;;;;;;9.62;96.02;101177.41;5073422;28;20036;-84
2022/12/20 04:21:38;;;;;;;3.87;2.50;;;;;;;9.65;95.89;101167.00;5074231;28;20020;-85
2022/12/20 04:24:05;;;;;;;3.07;2.40;;;;;;;9.70;95.54;101167.84;5073378;28;20032;-84
2022/12/20 04:26:30;;;;;;;5.18;3.03;;;;;;;9.70;95.79;101167.84;5074315;28;20040;-85
2022/12/20 04:28:57;;;;;;;2.97;2.20;;;;;;;9.69;95.78;101172.16;5073976;28;20089;-84
2022/12/20 04:31:22;;;;;;;2.80;2.30;;;;;;;9.70;95.66;101165.25;5073049;28;20024;-84
2022/12/20 04:33:48;;;;;;;3.70;2.33;;;;;;;9.71;95.28;101165.25;5074236;28;20052;-84
2022/12/20 04:36:22;;;;;;;3.60;2.37;;;;;;;9.72;95.62;101169.56;5069743;28;20028;-84
2022/12/20 04:38:48;;;;;;;3.53;2.22;;;;;;;9.73;95.48;101160.91;5073747;28;20066;-84
2022/12/20 04:41:21;;;;;;;3.10;2.20;;;;;;;9.76;95.00;101160.03;5073352;28;20490;-84
2022/12/20 04:43:48;;;;;;;2.58;2.20;;;;;;;9.77;95.15;101151.38;5073291;28;20063;-83
2022/12/20 04:46:13;;;;;;;2.70;2.00;;;;;;;9.78;95.18;101160.03;5073285;28;20111;-84
2022/12/20 04:48:39;;;;;;;2.50;2.20;;;;;;;9.85;95.18;101164.28;5074027;28;20052;-84
2022/12/20 04:51:04;;;;;;;3.73;2.40;;;;;;;9.87;94.82;101159.97;5072509;28;20473;-84
2022/12/20 04:53:48;;;;;;;2.80;2.20;;;;;;;9.83;95.02;101166.03;5073481;28;20025;-85
2022/12/20 04:56:27;;;;;;;3.10;2.25;;;;;;;9.82;95.05;101157.41;5073422;28;20032;-84
2022/12/20 04:58:54;;;;;;;2.30;2.10;;;;;;;9.83;95.27;101156.53;5073123;28;20029;-85
2022/12/20 05:01:20;;;;;;;;;;;;;;;9.86;94.45;101160.81;5073516;28;20052;-86
2022/12/20 05:03:46;;;;;;;3.53;2.33;;;;;;;9.84;94.79;101160.84;5073434;28;19912;-86
2022/12/20 05:06:11;;;;;;;2.97;2.33;;;;;;;9.85;94.80;101140.97;5072324;28;20029;-85
2022/12/20 05:08:37;;;;;;;2.53;2.30;;;;;;;9.91;94.63;101150.41;5073647;28;20025;-86
2022/12/20 05:11:04;;;;;;;5.80;2.60;;;;;;;9.88;94.90;101140.94;5072742;28;20465;-85
2022/12/20 05:13:30;;;;;;;2.78;2.45;;;;;;;9.85;95.09;101149.56;5072723;28;20035;-86
2022/12/20 05:15:56;;;;;;;3.97;2.30;;;;;;;9.85;95.00;101136.63;5073381;28;20025;-85
2022/12/20 05:18:22;;;;;;;3.55;2.30;;;;;;;9.87;94.77;101137.47;5071794;28;20028;-85
2022/12/20 05:26:15;;;;;;;4.07;2.40;;;;;;;9.87;94.81;101134.03;5073197;28;20029;-86
2022/12/20 05:26:17;;;;;;;3.22;2.40;;;;;;;9.87;94.98;101115.88;5072435;28;20047;-86
2022/12/20 05:28:43;;;;;;;3.40;2.30;;;;;;;9.87;95.30;101110.69;5072639;28;20469;-86
2022/12/20 05:31:08;;;;;;;4.83;2.27;;;;;;;9.86;95.19;101119.34;5072819;28;20021;-86
2022/12/20 05:33:34;;;;;;;2.57;2.20;;;;;;;9.84;95.22;101110.72;5072502;28;20496;-86
2022/12/20 05:35:59;;;;;;;4.23;2.40;;;;;;;9.84;95.27;101109.00;5073212;28;20085;-86
2022/12/20 05:38:25;;;;;;;2.60;2.20;;;;;;;9.84;95.45;101108.13;5072719;28;20078;-85
2022/12/20 05:41:05;;;;;;;4.17;2.30;;;;;;;9.85;95.00;101105.50;5072330;28;20028;-86
2022/12/20 05:43:31;;;;;;;2.90;2.03;;;;;;;9.82;95.39;101102.97;5052899;28;20033;-86
2022/12/20 05:45:56;;;;;;;4.10;2.40;;;;;;;9.86;95.16;101104.63;5052739;28;20442;-85
2022/12/20 05:48:21;;;;;;;3.50;2.10;;;;;;;9.86;95.16;101102.03;5051779;28;20148;-85
2022/12/20 05:50:47;;;;;;;3.07;2.40;;;;;;;9.92;94.93;101103.72;5052860;28;20103;-86
2022/12/20 05:53:14;;;;;;;3.33;2.20;;;;;;;9.87;95.16;101102.94;5061110;28;20029;-86
2022/12/20 05:55:44;;;;;;;2.75;2.22;;;;;;;9.83;95.28;101090.84;5072430;28;20020;-85
2022/12/20 05:58:12;;;;;;;2.42;2.20;;;;;;;9.81;95.14;101096.06;5072608;28;20099;-85
2022/12/20 06:00:40;;;;;;;2.67;2.25;;;;;;;9.82;95.05;101081.34;5071853;28;20044;-85
2022/12/20 06:03:08;;;;;;;4.60;2.30;;;;;;;9.78;95.38;101080.53;5070878;28;20409;-85
2022/12/20 06:05:33;;;;;;;2.08;1.88;;;;;;;9.77;95.36;101083.97;5071879;28;20043;-85
2022/12/20 06:07:59;;;;;;;4.03;2.20;;;;;;;9.79;95.26;101091.78;5072118;28;20111;-86
2022/12/20 06:10:24;;;;;;;4.10;2.37;;;;;;;9.92;94.53;101066.59;5072671;28;20111;-86
2022/12/20 06:12:50;;;;;;;3.13;2.23;;;;;;;9.82;95.15;101056.31;5072470;28;20028;-85
2022/12/20 06:15:15;;;;;;;3.80;2.33;;;;;;;9.81;94.48;101053.72;5071577;28;20024;-85
2022/12/20 06:17:41;;;;;;;4.50;2.43;;;;;;;9.81;94.69;101046.81;5071984;28;20469;-83
2022/12/20 06:20:07;;;;;;;2.43;2.20;;;;;;;9.86;94.69;101050.19;5072287;28;20103;-83
2022/12/20 06:22:32;;;;;;;4.53;2.50;;;;;;;9.87;93.85;101056.25;5071742;28;20059;-83
2022/12/20 06:24:58;;;;;;;3.33;2.27;;;;;;;9.83;94.21;101051.97;5072739;28;20024;-84
2022/12/20 06:27:23;;;;;;;2.73;2.17;;;;;;;9.83;93.94;101055.44;5072611;28;20389;-83
2022/12/20 06:29:53;;;;;;;2.77;2.13;;;;;;;9.82;94.08;101055.44;5066843;28;20017;-83
2022/12/20 06:32:18;;;;;;;3.50;2.10;;;;;;;9.77;93.81;101059.81;5051835;28;20025;-83
2022/12/20 06:34:43;;;;;;;3.23;2.00;;;;;;;9.73;93.97;101062.41;5052550;28;20067;-83
2022/12/20 06:37:09;;;;;;;4.20;2.27;;;;;;;9.72;94.09;101063.28;5051299;28;20079;-83
2022/12/20 06:39:34;;;;;;;3.00;2.20;;;;;;;9.71;93.90;101064.16;5052547;28;20032;-83
2022/12/20 06:41:59;;;;;;;3.27;2.30;;;;;;;9.76;93.64;101071.06;5054655;28;20048;-83
2022/12/20 06:44:25;;;;;;;2.50;2.00;;;;;;;9.69;93.91;101063.31;5054986;28;20029;-83
2022/12/20 06:46:50;;;;;;;2.60;2.20;;;;;;;9.70;93.29;101059.00;5055762;28;20036;-83
2022/12/20 06:49:15;;;;;;;2.90;2.20;;;;;;;9.69;93.61;101063.31;5055643;28;20496;-85
2022/12/20 06:51:41;;;;;;;3.17;2.10;;;;;;;9.69;92.85;101062.47;5054989;28;20477;-86
2022/12/20 06:54:07;;;;;;;3.17;2.27;;;;;;;9.95;92.46;101056.19;5064671;28;20393;-86
2022/12/20 06:56:32;;;;;;;4.90;2.40;;;;;;;9.80;92.06;101054.56;5075320;28;20127;-86
2022/12/20 06:58:57;;;;;;;2.90;2.00;;;;;;;9.72;92.46;101047.75;5075330;28;20024;-85
2022/12/20 07:01:23;;;;;;;4.07;2.37;;;;;;;9.74;92.64;101060.66;5074599;28;20503;-86
2022/12/20 07:03:48;;;;;;;2.70;2.30;;;;;;;9.77;92.04;101052.03;5074799;28;20064;-84
2022/12/20 07:06:19;;;;;;;4.97;2.20;;;;;;;9.75;92.15;101057.22;5060359;28;20031;-85
2022/12/20 07:08:45;;;;;;;3.00;2.00;;;;;;;9.74;92.73;101065.84;5075141;28;20031;-85
2022/12/20 07:11:10;;;;;;;2.23;2.03;;;;;;;9.78;91.89;101066.72;5074160;28;20017;-85
2022/12/20 07:13:36;;;;;;;5.10;2.33;;;;;;;9.84;90.92;101069.25;5075554;28;20024;-85
2022/12/20 07:16:03;;;;;;;2.43;2.00;;;;;;;9.85;91.18;101065.78;5075602;28;20032;-85
2022/12/20 07:18:28;;;;;;;;;;;;;;;9.90;90.97;101064.03;5076041;28;20035;-85
2022/12/20 07:20:58;;;;;;;2.43;2.23;;;;;;;9.86;90.96;101065.75;5060320;28;20003;-85
2022/12/20 07:23:24;;;;;;;2.95;2.28;;;;;;;9.84;91.15;101071.84;5055373;28;20123;-85
2022/12/20 07:25:57;;;;;;;2.03;1.93;;;;;;;9.80;91.40;101055.47;5054089;28;20532;-85
2022/12/20 07:28:24;;;;;;;2.53;2.13;;;;;;;9.84;90.64;101053.69;5059343;28;20124;-85
2022/12/20 07:30:50;;;;;;;;;;;;;;;9.86;90.26;101060.56;5056676;28;20103;-85
2022/12/20 07:33:15;;;;;;;2.90;2.10;;;;;;;9.93;90.20;101060.53;5071300;28;19940;-87
2022/12/20 07:35:42;;;;;;;4.20;2.10;;;;;;;9.93;89.42;101063.13;5074959;28;20473;-85
2022/12/20 07:38:17;;;;;;;2.17;1.88;;;;;;;9.93;90.36;101060.53;5067614;28;20094;-86
2022/12/20 07:40:42;;;;;;;2.80;1.90;;;;;;;9.96;89.72;101060.50;5075600;28;20534;-85
2022/12/20 07:43:11;;;;;;;2.40;2.20;;;;;;;10.14;89.24;101059.44;5072028;28;20032;-84
2022/12/20 07:45:39;;;;;;;3.95;2.10;;;;;;;10.00;89.65;101067.38;5072297;28;20032;-84
2022/12/20 07:48:04;;;;;;;2.53;2.05;;;;;;;9.98;90.38;101076.88;5071622;28;20032;-85
2022/12/20 07:50:32;;;;;;;2.97;2.00;;;;;;;10.03;89.50;101077.72;5072332;28;20040;-85
2022/12/20 07:52:58;;;;;;;2.92;1.98;;;;;;;10.05;89.91;101083.75;5073080;28;20028;-83
2022/12/20 07:55:23;;;;;;;4.67;2.10;;;;;;;9.99;89.57;101079.50;5071915;28;20024;-83
2022/12/20 07:57:54;;;;;;;2.10;1.90;;;;;;;10.00;89.74;101078.63;5073778;28;20106;-83
2022/12/20 08:00:19;;;;;;;2.97;2.00;;;;;;;10.01;89.06;101087.25;5074004;28;20041;-83
2022/12/20 08:03:00;;;;;;;2.80;2.00;;;;;;;10.02;90.06;101091.56;5074731;28;20035;-84
2022/12/20 08:05:25;;;;;;;3.40;1.90;;;;;;;9.99;89.99;101095.03;5074399;28;20020;-83
2022/12/20 08:07:52;;;;;;;2.33;2.00;;;;;;;9.98;90.52;101093.31;5073980;28;20437;-83
2022/12/20 08:10:18;;;;;;;2.40;2.00;;;;;;;9.94;90.85;101085.59;5074411;28;20062;-83
2022/12/20 08:12:46;;;;;;;2.93;2.17;;;;;;;9.96;91.05;101083.84;5074662;28;20041;-83
2022/12/20 08:15:12;;;;;;;3.03;1.95;;;;;;;9.85;92.38;101084.78;5073608;28;20071;-84
2022/12/20 08:17:37;;;;;;;2.37;2.10;;;;;;;9.84;92.47;101082.19;5074867;28;20480;-83
2022/12/20 08:20:04;;;;;;;2.23;2.03;;;;;;;9.73;93.24;101069.34;5073588;28;20469;-83
2022/12/20 08:22:30;;;;;;;2.33;1.88;;;;;;;9.68;93.57;101076.28;5073361;28;20025;-83
2022/12/20 08:24:55;;;;;;;4.07;2.40;;;;;;;9.69;93.18;101078.84;5074275;28;20023;-84
2022/12/20 08:27:21;;;;;;;2.60;1.93;;;;;;;9.67;93.90;101090.13;5074067;28;20107;-84
2022/12/20 08:29:46;;;;;;;4.20;2.00;;;;;;;9.62;94.62;101091.91;5073127;28;20048;-84
2022/12/20 08:32:13;;;;;;;6.20;2.00;;;;;;;9.58;94.74;101091.03;5073424;28;20028;-84
2022/12/20 08:34:38;;;;;;;2.70;2.10;;;;;;;9.65;93.62;101087.53;5074113;28;20060;-84
2022/12/20 08:37:05;;;;;;;2.83;2.13;;;;;;;9.61;94.16;101078.06;5072852;28;20052;-84
2022/12/20 08:39:32;;;;;;;2.33;1.98;;;;;;;9.55;95.06;101078.97;5074149;28;20021;-85
2022/12/20 08:41:58;;;;;;;3.63;2.10;;;;;;;9.52;95.46;101084.16;5085196;22;21092;-84
2022/12/20 08:44:24;;;;;;;2.33;2.10;;;;;;;9.51;95.46;101086.78;5093114;28;20020;-84
2022/12/20 08:46:49;;;;;;;2.95;1.90;;;;;;;9.45;95.49;101074.72;5095106;28;20031;-84
2022/12/20 08:49:15;;;;;;;2.37;1.90;;;;;;;9.43;96.53;101076.47;5109779;28;20035;-84
2022/12/20 08:51:40;;;;;;;2.50;2.10;;;;;;;9.46;95.64;101075.59;5113536;28;20059;-84
2022/12/20 08:54:05;;;;;;;2.43;2.17;;;;;;;9.40;96.64;101072.16;5113435;28;20028;-84
2022/12/20 08:56:31;;;;;;;2.13;1.87;;;;;;;9.37;97.54;101073.94;5113454;28;20455;-84
2022/12/20 08:58:56;;;;;;;2.67;2.10;;;;;;;9.34;97.25;101069.63;5114037;28;20074;-85
2022/12/20 09:01:22;;;;;;;4.03;2.13;;;;;;;9.31;96.96;101064.47;5113877;28;20027;-85
2022/12/20 09:03:48;;;;;;;4.53;2.30;;;;;;;9.43;96.00;101073.88;5113088;28;20379;-87
2022/12/20 09:06:16;;;;;;;5.00;2.30;;;;;;;9.31;98.10;101061.88;5113350;28;20034;-83
2022/12/20 09:08:42;;;;;;;2.72;2.17;;;;;;;9.23;98.30;101053.31;5113771;28;20753;-84
2022/12/20 09:11:17;;;;;;;3.53;2.10;;;;;;;9.21;98.82;101057.63;5113063;28;20034;-84
2022/12/20 09:13:44;;;;;;;2.47;2.15;;;;;;;9.28;97.49;101056.72;5114054;28;20024;-84
2022/12/20 09:16:12;;;;;;;3.33;2.33;;;;;;;9.19;99.75;101054.19;5113370;28;20020;-86
2022/12/20 09:18:37;;;;;;;4.50;2.30;;;;;;;9.16;99.99;101057.66;5099554;28;20052;-83
2022/12/20 09:21:05;;;;;;;3.03;2.20;;;;;;;9.15;100.00;101058.53;5093474;28;20097;-84
2022/12/20 09:23:32;;;;;;;2.78;1.92;;;;;;;9.14;99.45;101053.34;5093088;28;20460;-84
2022/12/20 09:26:10;;;;;;;2.90;2.30;;;;;;;9.15;98.76;101045.56;5092529;28;20380;-85
2022/12/20 09:28:35;;;;;;;2.92;2.03;;;;;;;9.19;98.74;101060.19;5093216;28;20480;-84
2022/12/20 09:31:03;;;;;;;2.60;2.10;;;;;;;9.18;98.63;101055.03;5093334;28;20103;-84
2022/12/20 09:33:30;;;;;;;2.88;2.20;;;;;;;9.18;100.00;101060.22;5092575;28;20023;-85
2022/12/20 09:35:56;;;;;;;4.90;2.50;;;;;;;9.21;99.08;101061.06;5092871;28;20807;-85
2022/12/20 09:38:30;;;;;;;2.40;2.20;;;;;;;9.25;99.88;101056.72;5084486;28;20056;-84
2022/12/20 09:41:00;;;;;;;3.53;2.28;;;;;;;9.26;100.00;101059.31;5092970;28;20298;-84
2022/12/20 09:43:26;;;;;;;4.70;2.30;;;;;;;9.30;99.68;101056.69;5092645;28;20075;-85
2022/12/20 09:45:55;;;;;;;2.35;2.10;;;;;;;9.28;100.00;101048.94;5092246;28;20047;-84
2022/12/20 09:48:27;;;;;;;2.83;2.20;;;;;;;9.39;100.00;101056.66;5103603;28;20032;-85
2022/12/20 09:51:11;;;;;;;3.55;2.30;;;;;;;9.34;100.00;101048.91;5113021;28;20088;-85
2022/12/20 09:54:04;;;;;;;2.90;2.10;;;;;;;9.37;100.00;101056.63;5112663;28;20031;-85
2022/12/20 09:56:39;;;;;;;3.20;2.20;;;;;;;9.34;100.00;101064.44;5113020;28;20042;-85
2022/12/20 09:59:17;;;;;;;3.95;2.30;;;;;;;9.35;100.00;101054.94;5112917;28;20034;-84
2022/12/20 10:01:45;;;;;;;3.17;2.30;;;;;;;9.42;100.00;101048.84;5112411;28;20069;-84
2022/12/20 10:04:31;;;;;;;3.78;2.42;;;;;;;9.38;100.00;101058.38;5112974;28;20023;-84
2022/12/20 10:07:14;;;;;;;3.03;2.38;;;;;;;9.37;100.00;101046.28;5112500;28;20024;-84
2022/12/20 10:09:58;;;;;;;5.18;2.70;;;;;;;9.38;100.00;101047.16;5103533;28;20081;-85
2022/12/20 10:12:33;;;;;;;3.67;2.28;;;;;;;9.39;100.00;101046.28;5092427;28;20038;-83
2022/12/20 10:15:18;;;;;;;2.83;2.20;;;;;;;9.42;100.00;101039.34;5093332;28;20032;-83
2022/12/20 10:18:05;;;;;;;3.60;2.40;;;;;;;9.47;100.00;101051.38;5101919;28;20027;-83
2022/12/20 10:20:53;;;;;;;4.03;2.30;;;;;;;9.49;100.00;101041.88;5116833;28;20123;-83
2022/12/20 10:23:45;;;;;;;2.40;2.20;;;;;;;9.52;100.00;101034.94;5116081;28;20090;-83
2022/12/20 10:26:12;;;;;;;3.13;2.30;;;;;;;9.55;100.00;101036.66;5096663;28;20040;-83
2022/12/20 10:28:39;;;;;;;3.50;2.50;;;;;;;9.58;100.00;101042.69;5099017;28;20038;-83
2022/12/20 10:31:13;;;;;;;3.90;2.42;;;;;;;9.62;100.00;101046.09;5116853;28;20061;-83
2022/12/20 10:33:40;;;;;;;3.50;2.40;;;;;;;9.66;100.00;101039.16;5117407;28;20046;-83
2022/12/20 10:36:37;;;;;;;3.15;2.28;;;;;;;9.72;100.00;101033.94;5116032;28;20077;-83
2022/12/20 10:39:08;;;;;;;3.85;2.45;;;;;;;9.73;100.00;101038.25;5060497;28;20553;-84
2022/12/20 10:41:54;;;;;;;6.38;2.47;;;;;;;9.80;100.00;101033.84;5116715;27;20027;-83
2022/12/20 10:44:29;;;;;;;5.05;2.80;;;;;;;9.86;99.84;101034.66;5125546;27;20096;-86
2022/12/20 10:46:57;;;;;;;3.38;2.40;;;;;;;9.78;100.00;101036.47;5116507;28;20076;-84
2022/12/20 10:49:33;;;;;;;3.25;2.38;;;;;;;9.76;100.00;101024.41;5115965;28;20030;-84
2022/12/20 10:52:06;;;;;;;3.28;2.40;;;;;;;9.75;100.00;101028.69;5116776;28;20047;-84
2022/12/20 10:54:37;;;;;;;4.90;2.45;;;;;;;9.71;100.00;101025.28;5116689;28;20429;-84
2022/12/20 10:57:12;;;;;;;3.05;2.33;;;;;;;9.72;100.00;101036.53;5115902;28;20028;-84
2022/12/20 10:59:41;;;;;;;2.75;2.40;;;;;;;9.67;100.00;101023.59;5116583;28;20028;-84
2022/12/20 11:02:35;;;;;;;4.50;2.60;;;;;;;9.64;100.00;101026.22;5115898;27;20462;-84
2022/12/20 11:05:14;;;;;;;3.85;2.40;;;;;;;9.69;100.00;101019.25;5107250;28;20032;-84
2022/12/20 11:08:05;;;;;;;3.90;2.40;;;;;;;9.64;100.00;101018.44;5116493;28;20097;-85
2022/12/20 11:10:31;;;;;;;4.40;2.63;;;;;;;9.56;100.00;101018.50;5115855;28;20110;-83
2022/12/20 11:12:59;;;;;;;3.03;2.50;;;;;;;9.55;100.00;101015.94;5116002;28;20027;-84
2022/12/20 11:15:28;;;;;;;4.82;2.47;;;;;;;9.56;100.00;101010.72;5135754;27;20031;-84
2022/12/20 11:18:04;;;;;;;4.20;2.47;;;;;;;9.51;100.00;101011.63;5136049;27;20031;-83
2022/12/20 11:20:50;;;;;;;3.58;2.40;;;;;;;9.49;100.00;101009.06;5137076;27;20026;-84
2022/12/20 11:23:19;;;;;;;;;;;;;;;9.46;100.00;101003.91;5136651;27;20035;-84
2022/12/20 11:26:18;;;;;;;4.30;2.58;;;;;;;9.46;100.00;101011.69;5135770;27;19958;-84
2022/12/20 11:29:10;;;;;;;3.35;2.50;;;;;;;9.45;100.00;101009.13;5136578;27;20027;-83
2022/12/20 11:32:13;;;;;;;3.60;2.80;;;;;;;9.45;100.00;101007.38;5136005;27;20425;-84
2022/12/20 11:34:44;;;;;;;6.90;3.00;;;;;;;9.46;100.00;101008.25;5136844;27;20383;-84
2022/12/20 11:37:20;;;;;;;4.30;2.65;;;;;;;9.45;100.00;101015.13;5135922;27;20423;-83
2022/12/20 11:40:01;;;;;;;4.32;2.80;;;;;;;9.46;100.00;101000.47;5135896;27;20068;-84
2022/12/20 11:42:54;;;;;;;4.45;2.83;;;;;;;9.47;100.00;100989.22;5136012;27;20494;-84
2022/12/20 11:45:44;;;;;;;4.13;2.80;;;;;;;9.50;100.00;100997.84;5118310;27;20050;-83